Time;durP1;ratioP1;P1;durP2;ratioP2;P2;SDS_P1;SDS_P2;PMS_P1;PMS_P2;Temp;Humidity;BMP_temperature;BMP_pressure;BME280_temperature;BME280_humidity;BME280_pressure;Samples;Min_cycle;Max_cycle;Signal;HPM_P1;HPM_P2
2023/04/22 00:01:18;;;;;;;10.02;2.60;;;19.60;67.10;;;;;;4194553;28;20059;-51
2023/04/22 00:03:41;;;;;;;8.52;2.17;;;19.60;67.30;;;;;;4206955;28;20136;-54
2023/04/22 00:06:03;;;;;;;7.35;2.10;;;19.60;67.20;;;;;;4185053;28;20049;-55
2023/04/22 00:08:26;;;;;;;11.50;2.05;;;19.60;67.30;;;;;;4208427;28;20048;-53
2023/04/22 00:10:48;;;;;;;7.25;2.40;;;19.60;67.30;;;;;;4207398;28;20127;-52
2023/04/22 00:13:10;;;;;;;9.02;2.13;;;19.60;67.30;;;;;;4199713;28;20468;-54
2023/04/22 00:15:33;;;;;;;7.28;1.75;;;19.70;67.60;;;;;;4191672;28;20041;-55
2023/04/22 00:17:56;;;;;;;8.43;2.15;;;19.70;67.50;;;;;;4182843;28;20032;-53
2023/04/22 00:20:22;;;;;;;9.35;2.25;;;19.60;67.60;;;;;;4195452;28;20036;-52
2023/04/22 00:22:45;;;;;;;6.80;2.22;;;19.70;67.60;;;;;;4190007;28;20039;-51
2023/04/22 00:25:08;;;;;;;5.63;1.85;;;19.70;67.60;;;;;;4182858;28;20127;-53
2023/04/22 00:27:30;;;;;;;6.80;1.88;;;19.70;67.60;;;;;;4206500;28;20403;-51
2023/04/22 00:29:53;;;;;;;10.57;2.67;;;19.70;67.70;;;;;;4191205;28;20056;-55
2023/04/22 00:32:15;;;;;;;9.23;2.55;;;19.70;67.70;;;;;;4209821;28;20115;-55
2023/04/22 00:34:37;;;;;;;9.90;2.42;;;19.70;67.40;;;;;;4192170;28;20051;-55
2023/04/22 00:37:00;;;;;;;6.85;1.77;;;19.70;67.40;;;;;;4205515;28;20043;-52
2023/04/22 00:39:22;;;;;;;6.38;2.38;;;19.70;67.50;;;;;;4206142;28;20032;-50
2023/04/22 00:41:45;;;;;;;6.15;1.92;;;19.70;67.50;;;;;;4210123;28;20032;-57
2023/04/22 00:44:11;;;;;;;8.55;2.22;;;19.70;67.40;;;;;;4188953;28;20158;-58
2023/04/22 00:46:34;;;;;;;12.80;2.45;;;19.70;67.50;;;;;;4204087;28;20456;-58
2023/04/22 00:48:57;;;;;;;7.78;1.70;;;19.80;67.70;;;;;;4194676;28;20052;-59
2023/04/22 00:51:20;;;;;;;11.77;2.22;;;19.80;67.70;;;;;;4187853;28;20029;-58
2023/04/22 00:53:43;;;;;;;7.28;1.80;;;19.80;67.60;;;;;;4194966;28;20044;-57
2023/04/22 00:56:06;;;;;;;6.65;1.90;;;19.80;67.60;;;;;;4189885;28;20025;-54
2023/04/22 00:58:29;;;;;;;4.32;2.28;;;19.90;67.60;;;;;;4179446;28;20040;-56
2023/04/22 01:00:51;;;;;;;8.93;2.15;;;19.90;67.60;;;;;;4195898;28;20040;-58
2023/04/22 01:03:14;;;;;;;12.63;2.20;;;19.90;67.60;;;;;;4191765;28;20040;-54
2023/04/22 01:05:38;;;;;;;10.43;2.25;;;19.90;67.60;;;;;;4170137;28;20048;-49
2023/04/22 01:08:00;;;;;;;21.60;3.50;;;19.90;67.60;;;;;;4190464;28;20033;-58
2023/04/22 01:10:23;;;;;;;28.63;3.38;;;19.90;67.90;;;;;;4191881;28;20123;-57
2023/04/22 01:12:45;;;;;;;11.88;2.38;;;20.00;68.20;;;;;;4191388;28;20036;-54
2023/04/22 01:15:09;;;;;;;13.25;2.40;;;20.00;68.20;;;;;;4180184;28;20519;-51
2023/04/22 01:17:32;;;;;;;5.33;1.83;;;20.00;66.70;;;;;;4184001;28;20458;-49
2023/04/22 01:19:54;;;;;;;3.40;1.75;;;20.00;66.50;;;;;;4193642;28;20032;-53
2023/04/22 01:22:18;;;;;;;9.40;2.33;;;20.00;66.00;;;;;;4183271;28;20036;-57
2023/04/22 01:24:41;;;;;;;15.80;2.83;;;20.00;65.90;;;;;;4181925;28;20035;-60
2023/04/22 01:27:03;;;;;;;3.78;1.50;;;20.00;65.80;;;;;;4192323;28;20040;-59
2023/04/22 01:29:25;;;;;;;4.65;1.38;;;19.90;65.60;;;;;;4185369;28;20079;-59
2023/04/22 01:31:48;;;;;;;4.47;1.52;;;19.90;65.50;;;;;;4188950;28;20040;-60
2023/04/22 01:34:11;;;;;;;4.95;1.50;;;19.90;65.50;;;;;;4184302;28;20053;-59
2023/04/22 01:36:33;;;;;;;2.75;1.48;;;19.90;65.60;;;;;;4180975;28;20047;-61
2023/04/22 01:38:56;;;;;;;3.22;1.75;;;19.90;65.60;;;;;;4181880;28;20033;-58
2023/04/22 01:41:18;;;;;;;4.07;1.38;;;19.90;65.60;;;;;;4188165;28;20040;-61
2023/04/22 01:43:42;;;;;;;4.57;1.55;;;19.90;65.60;;;;;;4184510;28;20099;-59
2023/04/22 01:46:05;;;;;;;3.15;1.48;;;19.90;65.70;;;;;;4174400;28;20041;-58
2023/04/22 01:48:28;;;;;;;2.37;1.50;;;19.90;65.70;;;;;;4190868;28;20425;-59
2023/04/22 01:50:50;;;;;;;2.42;1.52;;;19.90;65.70;;;;;;4193907;28;20119;-60
2023/04/22 01:53:13;;;;;;;3.17;1.27;;;19.90;65.70;;;;;;4192334;28;20086;-60
2023/04/22 01:55:36;;;;;;;4.50;2.00;;;19.90;65.70;;;;;;4186570;28;20074;-60
2023/04/22 01:57:58;;;;;;;2.15;1.40;;;19.90;65.80;;;;;;4191182;28;20123;-60
2023/04/22 02:00:20;;;;;;;3.60;1.40;;;19.90;65.80;;;;;;4181701;28;20029;-61
2023/04/22 02:02:43;;;;;;;1.75;1.20;;;19.90;65.80;;;;;;4168382;28;20140;-61
2023/04/22 02:05:07;;;;;;;2.75;1.40;;;19.90;65.90;;;;;;4190001;28;20074;-60
2023/04/22 02:07:29;;;;;;;1.70;1.10;;;19.90;65.90;;;;;;4192951;28;20403;-60
2023/04/22 02:09:52;;;;;;;3.95;1.42;;;19.90;65.90;;;;;;4180849;28;20045;-59
2023/04/22 02:12:14;;;;;;;2.17;1.30;;;19.90;65.90;;;;;;4191719;28;20507;-61
2023/04/22 02:14:37;;;;;;;2.17;1.33;;;19.90;65.90;;;;;;4194089;28;20463;-62
2023/04/22 02:17:01;;;;;;;2.88;1.42;;;19.90;65.90;;;;;;4192325;28;20033;-61
2023/04/22 02:19:23;;;;;;;3.20;1.50;;;19.90;66.60;;;;;;4195532;28;20046;-61
2023/04/22 02:21:46;;;;;;;2.28;1.30;;;19.90;65.90;;;;;;4187824;28;20040;-59
2023/04/22 02:24:08;;;;;;;2.78;1.48;;;19.90;66.00;;;;;;4193671;28;20147;-60
2023/04/22 02:26:30;;;;;;;1.80;1.20;;;19.90;66.00;;;;;;4181671;28;20074;-63
2023/04/22 02:28:53;;;;;;;2.20;1.30;;;19.80;65.90;;;;;;4185067;28;20063;-60
2023/04/22 02:31:15;;;;;;;2.25;1.55;;;19.90;66.00;;;;;;4190380;28;20032;-59
2023/04/22 02:33:38;;;;;;;3.08;1.80;;;19.90;66.00;;;;;;4193788;28;20110;-59
2023/04/22 02:36:00;;;;;;;2.08;1.25;;;19.90;66.00;;;;;;4191072;28;20399;-60
2023/04/22 02:38:24;;;;;;;3.22;1.40;;;19.90;66.00;;;;;;4192350;28;20115;-59
2023/04/22 02:40:46;;;;;;;2.42;1.40;;;19.90;66.60;;;;;;4190873;28;20035;-59
2023/04/22 02:43:09;;;;;;;2.28;1.45;;;19.90;66.10;;;;;;4192485;28;20060;-60
2023/04/22 02:45:31;;;;;;;2.95;1.45;;;19.90;66.10;;;;;;4177810;28;20037;-59
2023/04/22 02:47:53;;;;;;;1.88;1.40;;;19.90;66.10;;;;;;4191642;28;20458;-60
2023/04/22 02:50:16;;;;;;;2.05;1.40;;;19.90;66.20;;;;;;4187772;28;20080;-59
2023/04/22 02:52:38;;;;;;;2.17;1.35;;;19.90;66.20;;;;;;4188390;28;20497;-60
2023/04/22 02:55:01;;;;;;;2.10;1.33;;;19.90;66.20;;;;;;4191790;28;20040;-61
2023/04/22 02:57:23;;;;;;;2.50;1.50;;;19.90;66.70;;;;;;4192113;28;20051;-59
2023/04/22 02:59:46;;;;;;;3.35;1.20;;;19.90;66.20;;;;;;4178760;28;20037;-60
2023/04/22 03:02:10;;;;;;;2.45;1.27;;;19.90;66.20;;;;;;4187624;28;20040;-60
2023/04/22 03:04:32;;;;;;;2.65;1.30;;;19.90;66.20;;;;;;4172137;28;20057;-61
2023/04/22 03:06:55;;;;;;;3.28;1.70;;;19.90;66.20;;;;;;4183781;28;20140;-60
2023/04/22 03:09:17;;;;;;;2.13;1.52;;;19.90;66.20;;;;;;4184195;28;20048;-59
2023/04/22 03:11:39;;;;;;;1.77;1.27;;;20.00;66.30;;;;;;4191273;28;20039;-60
2023/04/22 03:14:02;;;;;;;2.10;1.38;;;20.00;66.30;;;;;;4186726;28;20068;-62
2023/04/22 03:16:24;;;;;;;2.17;1.35;;;19.90;66.20;;;;;;4185390;28;20036;-60
2023/04/22 03:18:47;;;;;;;1.50;1.13;;;20.00;66.30;;;;;;4185816;28;20039;-59
2023/04/22 03:21:09;;;;;;;2.45;1.40;;;20.00;66.30;;;;;;4176818;28;20512;-59
2023/04/22 03:23:32;;;;;;;2.35;1.42;;;20.00;66.30;;;;;;4187127;28;20112;-60
2023/04/22 03:25:54;;;;;;;3.00;1.30;;;20.00;66.30;;;;;;4186671;28;20441;-61
2023/04/22 03:28:17;;;;;;;3.00;1.30;;;20.00;66.30;;;;;;4189593;28;20400;-60
2023/04/22 03:30:39;;;;;;;2.75;1.80;;;20.00;66.30;;;;;;4191758;28;20079;-61
2023/04/22 03:33:02;;;;;;;2.50;1.40;;;20.00;66.30;;;;;;4189362;28;20062;-60
2023/04/22 03:35:24;;;;;;;2.13;1.40;;;20.00;66.40;;;;;;4187072;28;20028;-59
2023/04/22 03:37:47;;;;;;;2.63;1.50;;;20.10;66.40;;;;;;4187507;28;20044;-62
2023/04/22 03:40:10;;;;;;;1.63;1.30;;;20.10;66.50;;;;;;4184498;28;20043;-59
2023/04/22 03:42:32;;;;;;;1.95;1.50;;;20.10;66.50;;;;;;4192027;28;20064;-60
2023/04/22 03:44:55;;;;;;;1.65;1.30;;;20.10;66.50;;;;;;4189665;28;20033;-59
2023/04/22 03:47:17;;;;;;;2.45;1.40;;;20.10;66.60;;;;;;4177737;28;20488;-60
2023/04/22 03:49:40;;;;;;;2.28;1.70;;;20.10;66.60;;;;;;4207182;28;20056;-60
2023/04/22 03:52:02;;;;;;;1.60;1.17;;;20.10;66.60;;;;;;4199449;28;20517;-59
2023/04/22 03:54:25;;;;;;;4.10;1.50;;;20.10;66.60;;;;;;4206965;28;20084;-60
2023/04/22 03:56:48;;;;;;;3.33;1.58;;;20.10;66.60;;;;;;4204795;28;20043;-60
2023/04/22 03:59:10;;;;;;;3.03;1.50;;;20.20;66.60;;;;;;4209839;28;20036;-61
2023/04/22 04:01:33;;;;;;;1.88;1.25;;;20.20;66.60;;;;;;4190276;28;20052;-59
2023/04/22 04:03:55;;;;;;;4.47;1.45;;;20.20;66.60;;;;;;4208105;28;20032;-60
2023/04/22 04:06:18;;;;;;;1.60;1.48;;;20.20;66.60;;;;;;4212640;28;20047;-59
2023/04/22 04:08:40;;;;;;;2.05;1.30;;;20.20;66.60;;;;;;4210850;28;20059;-59
2023/04/22 04:11:02;;;;;;;1.80;1.33;;;20.20;66.60;;;;;;4207774;28;20784;-59
2023/04/22 04:13:25;;;;;;;1.40;1.25;;;20.20;66.60;;;;;;4213063;28;20040;-60
2023/04/22 04:15:47;;;;;;;1.90;1.38;;;20.20;66.60;;;;;;4187705;28;20068;-59
2023/04/22 04:18:10;;;;;;;2.33;1.42;;;20.20;66.60;;;;;;4210134;28;20058;-61
2023/04/22 04:20:33;;;;;;;2.13;1.60;;;20.30;66.70;;;;;;4213181;28;20071;-60
2023/04/22 04:22:55;;;;;;;2.10;1.50;;;20.30;66.70;;;;;;4209450;28;20543;-59
2023/04/22 04:25:20;;;;;;;3.13;1.50;;;20.30;66.70;;;;;;4204465;28;20036;-61
2023/04/22 04:27:42;;;;;;;2.10;1.30;;;20.30;66.70;;;;;;4208945;28;20060;-60
2023/04/22 04:30:05;;;;;;;2.47;1.23;;;20.30;66.70;;;;;;4204523;28;20471;-60
2023/04/22 04:32:28;;;;;;;3.53;1.50;;;20.30;66.70;;;;;;4193428;28;20036;-60
2023/04/22 04:34:51;;;;;;;1.48;1.10;;;20.30;66.80;;;;;;4194203;28;20032;-59
2023/04/22 04:37:15;;;;;;;2.08;1.30;;;20.30;66.80;;;;;;4202055;28;20469;-59
2023/04/22 04:39:37;;;;;;;;;;;20.30;66.80;;;;;;4210155;28;20047;-61
2023/04/22 04:41:59;;;;;;;2.53;1.50;;;20.30;66.90;;;;;;4212347;28;19940;-59
2023/04/22 04:44:22;;;;;;;2.20;1.50;;;20.30;66.90;;;;;;4209739;28;20044;-59
2023/04/22 04:46:45;;;;;;;2.75;1.50;;;20.40;67.00;;;;;;4210087;28;20032;-60
2023/04/22 04:49:08;;;;;;;2.25;1.30;;;20.40;67.00;;;;;;4187574;28;20436;-61
2023/04/22 04:51:34;;;;;;;2.72;1.75;;;20.40;67.20;;;;;;4181176;28;20039;-59
2023/04/22 04:53:56;;;;;;;4.00;1.90;;;20.40;67.40;;;;;;4187932;28;20036;-59
2023/04/22 04:56:18;;;;;;;3.17;1.90;;;20.40;67.50;;;;;;4182304;28;20514;-59
2023/04/22 04:58:41;;;;;;;3.92;2.15;;;20.40;68.20;;;;;;4191777;28;20071;-60
2023/04/22 05:01:03;;;;;;;3.13;1.98;;;20.40;68.30;;;;;;4191665;28;20526;-59
2023/04/22 05:03:26;;;;;;;3.28;1.52;;;20.40;68.30;;;;;;4169308;28;20037;-60
2023/04/22 05:05:48;;;;;;;3.80;1.90;;;20.50;68.20;;;;;;4192721;28;20040;-60
2023/04/22 05:08:11;;;;;;;4.10;2.00;;;20.40;68.40;;;;;;4178713;28;20032;-60
2023/04/22 05:10:33;;;;;;;3.72;1.92;;;20.50;68.40;;;;;;4193324;28;20126;-60
2023/04/22 05:12:55;;;;;;;3.42;2.00;;;20.50;68.20;;;;;;4189319;28;20126;-59
2023/04/22 05:15:18;;;;;;;3.08;1.80;;;20.50;68.20;;;;;;4188333;28;20510;-59
2023/04/22 05:17:40;;;;;;;3.13;1.90;;;20.50;68.20;;;;;;4185129;28;20060;-61
2023/04/22 05:20:03;;;;;;;3.88;1.73;;;20.50;68.20;;;;;;4179524;28;20579;-60
2023/04/22 05:22:26;;;;;;;3.33;1.97;;;20.50;68.30;;;;;;4178845;28;20412;-60
2023/04/22 05:24:48;;;;;;;4.50;2.10;;;20.50;68.30;;;;;;4192027;28;20033;-59
2023/04/22 05:27:11;;;;;;;4.82;2.30;;;20.50;68.50;;;;;;4192968;28;20480;-59
2023/04/22 05:29:33;;;;;;;3.92;2.00;;;20.50;68.40;;;;;;4192064;28;20071;-58
2023/04/22 05:31:56;;;;;;;6.15;2.45;;;20.50;68.50;;;;;;4192650;28;20037;-60
2023/04/22 05:34:18;;;;;;;6.40;2.22;;;20.50;68.70;;;;;;4185548;28;20048;-60
2023/04/22 05:36:41;;;;;;;3.70;2.03;;;20.50;69.00;;;;;;4187299;28;20032;-61
2023/04/22 05:39:04;;;;;;;3.92;1.80;;;20.60;69.30;;;;;;4185351;28;20466;-62
2023/04/22 05:41:26;;;;;;;7.88;2.03;;;20.60;69.30;;;;;;4173436;28;20124;-60
2023/04/22 05:43:49;;;;;;;6.32;2.08;;;20.60;69.40;;;;;;4193128;28;20442;-59
2023/04/22 05:46:11;;;;;;;15.00;2.60;;;20.70;69.50;;;;;;4192665;28;20492;-58
2023/04/22 05:48:33;;;;;;;6.80;2.50;;;20.70;69.50;;;;;;4192948;28;20579;-57
2023/04/22 05:50:56;;;;;;;6.13;2.33;;;20.80;69.50;;;;;;4176226;28;20044;-59
2023/04/22 05:53:18;;;;;;;6.80;2.28;;;20.80;69.50;;;;;;4190853;28;20044;-58
2023/04/22 05:55:41;;;;;;;5.05;1.77;;;20.80;69.50;;;;;;4175566;28;20122;-54
2023/04/22 05:58:03;;;;;;;5.43;1.95;;;20.80;69.50;;;;;;4193068;28;20049;-54
2023/04/22 06:00:26;;;;;;;5.75;2.30;;;20.90;69.60;;;;;;4189995;28;20044;-56
2023/04/22 06:02:48;;;;;;;21.70;3.30;;;20.90;69.70;;;;;;4188070;28;20535;-56
2023/04/22 06:05:10;;;;;;;8.98;2.15;;;20.90;69.60;;;;;;4191334;28;20049;-53
2023/04/22 06:07:33;;;;;;;8.93;2.35;;;20.90;69.40;;;;;;4191832;28;20119;-54
2023/04/22 06:09:55;;;;;;;4.70;1.90;;;20.90;69.40;;;;;;4186314;28;20094;-55
2023/04/22 06:12:18;;;;;;;5.88;2.40;;;20.80;69.00;;;;;;4190985;28;20123;-53
2023/04/22 06:14:41;;;;;;;3.13;2.00;;;20.80;68.90;;;;;;4192800;28;20041;-54
2023/04/22 06:17:03;;;;;;;7.55;2.10;;;20.90;68.90;;;;;;4193903;28;20040;-51
2023/04/22 06:19:27;;;;;;;3.88;2.20;;;20.80;68.80;;;;;;4172086;28;20353;-54
2023/04/22 06:21:49;;;;;;;3.80;1.90;;;20.80;68.70;;;;;;4189580;28;20040;-51
2023/04/22 06:24:12;;;;;;;6.00;2.20;;;20.80;68.70;;;;;;4185561;28;20137;-51
2023/04/22 06:26:34;;;;;;;2.78;1.90;;;20.80;68.50;;;;;;4191000;28;20291;-54
2023/04/22 06:28:56;;;;;;;8.40;2.13;;;20.80;68.60;;;;;;4189331;28;20047;-50
2023/04/22 06:31:19;;;;;;;4.82;1.98;;;20.80;68.40;;;;;;4190225;28;20200;-53
2023/04/22 06:33:41;;;;;;;4.82;2.00;;;20.80;68.30;;;;;;4185169;28;20437;-55
2023/04/22 06:36:04;;;;;;;5.03;1.80;;;20.80;68.20;;;;;;4191787;28;20045;-51
2023/04/22 06:38:26;;;;;;;6.60;1.90;;;20.80;68.10;;;;;;4177567;28;20408;-54
2023/04/22 06:40:49;;;;;;;5.25;2.30;;;20.80;68.10;;;;;;4188877;28;20068;-54
2023/04/22 06:43:11;;;;;;;4.00;2.08;;;20.80;68.20;;;;;;4187980;28;20036;-52
2023/04/22 06:45:34;;;;;;;3.38;2.35;;;20.80;68.00;;;;;;4187431;28;20037;-53
2023/04/22 06:47:56;;;;;;;4.45;1.80;;;20.80;68.00;;;;;;4184423;28;20045;-54
2023/04/22 06:50:19;;;;;;;3.55;1.67;;;20.80;67.90;;;;;;4189822;28;20049;-54
2023/04/22 06:52:41;;;;;;;1.92;1.55;;;20.80;67.90;;;;;;4183545;28;20041;-54
2023/04/22 06:55:04;;;;;;;3.97;1.90;;;20.80;67.90;;;;;;4190321;28;20044;-55
2023/04/22 06:57:27;;;;;;;3.22;1.88;;;20.80;67.90;;;;;;4171905;28;20033;-49
2023/04/22 06:59:49;;;;;;;5.10;1.65;;;20.80;67.80;;;;;;4191476;28;20037;-52
2023/04/22 07:02:12;;;;;;;4.68;1.65;;;20.80;68.00;;;;;;4186986;28;20036;-54
2023/04/22 07:04:34;;;;;;;3.70;1.60;;;20.80;67.70;;;;;;4188983;28;20043;-55
2023/04/22 07:06:57;;;;;;;3.63;2.00;;;20.80;67.80;;;;;;4176601;28;20029;-53
2023/04/22 07:09:19;;;;;;;3.03;1.48;;;20.80;67.70;;;;;;4177714;28;20159;-55
2023/04/22 07:11:42;;;;;;;3.88;1.90;;;20.80;67.70;;;;;;4190483;28;20331;-51
2023/04/22 07:14:04;;;;;;;3.45;1.70;;;20.80;67.70;;;;;;4188965;28;20447;-53
2023/04/22 07:16:27;;;;;;;3.65;1.80;;;20.80;67.60;;;;;;4180019;28;20123;-55
2023/04/22 07:18:50;;;;;;;4.10;1.77;;;20.80;67.60;;;;;;4180559;28;20045;-55
2023/04/22 07:21:13;;;;;;;4.20;1.70;;;20.80;67.60;;;;;;4176180;28;20341;-54
2023/04/22 07:23:35;;;;;;;3.88;1.67;;;20.80;68.40;;;;;;4176986;28;20086;-54
2023/04/22 07:25:58;;;;;;;3.97;1.67;;;20.80;67.50;;;;;;4178557;28;20036;-54
2023/04/22 07:28:20;;;;;;;4.35;2.10;;;20.80;67.70;;;;;;4165577;28;20037;-56
2023/04/22 07:30:43;;;;;;;3.72;1.50;;;20.80;67.70;;;;;;4162862;28;20088;-55
2023/04/22 07:33:05;;;;;;;2.47;1.50;;;20.80;67.70;;;;;;4174871;28;20201;-54
2023/04/22 07:35:29;;;;;;;2.50;1.73;;;20.80;67.60;;;;;;4178319;28;20037;-56
2023/04/22 07:37:52;;;;;;;3.00;1.50;;;20.80;67.60;;;;;;4179716;28;20090;-52
2023/04/22 07:40:14;;;;;;;3.47;1.90;;;20.80;67.80;;;;;;4178525;28;20389;-54
2023/04/22 07:42:40;;;;;;;2.65;1.77;;;20.80;67.70;;;;;;4181888;28;20041;-51
2023/04/22 07:45:02;;;;;;;2.15;1.45;;;20.80;67.70;;;;;;4167082;28;20415;-56
2023/04/22 07:47:25;;;;;;;2.53;1.40;;;20.80;67.70;;;;;;4178690;28;20054;-50
2023/04/22 07:49:48;;;;;;;3.40;1.55;;;20.80;67.60;;;;;;4174269;28;20468;-52
2023/04/22 07:52:13;;;;;;;2.92;1.70;;;20.90;67.80;;;;;;4181387;28;20338;-54
2023/04/22 07:54:35;;;;;;;3.28;1.80;;;20.80;67.70;;;;;;4183351;28;20123;-56
2023/04/22 07:56:58;;;;;;;3.13;1.50;;;20.90;67.80;;;;;;4179092;28;20043;-54
2023/04/22 07:59:20;;;;;;;3.55;1.90;;;20.80;67.70;;;;;;4177440;28;20062;-55
2023/04/22 08:01:45;;;;;;;2.25;1.65;;;20.90;67.80;;;;;;4183733;28;20412;-52
2023/04/22 08:04:08;;;;;;;3.90;1.88;;;20.80;67.70;;;;;;4183154;28;20420;-53
2023/04/22 08:06:30;;;;;;;3.97;1.60;;;20.90;68.00;;;;;;4190133;28;20028;-52
2023/04/22 08:08:53;;;;;;;3.47;1.65;;;20.90;67.80;;;;;;4191637;28;20132;-55
2023/04/22 08:11:16;;;;;;;1.60;1.27;;;20.90;67.70;;;;;;4171228;28;20584;-54
2023/04/22 08:13:38;;;;;;;2.38;1.50;;;20.90;67.80;;;;;;4191878;28;20072;-49
2023/04/22 08:16:06;;;;;;;6.28;2.20;;;20.80;68.00;;;;;;4188301;28;20411;-54
2023/04/22 08:18:28;;;;;;;2.72;1.88;;;20.80;68.70;;;;;;4188118;28;20028;-55
2023/04/22 08:20:51;;;;;;;4.07;1.80;;;20.80;68.70;;;;;;4189656;28;20047;-56
2023/04/22 08:23:13;;;;;;;3.70;1.85;;;20.80;68.60;;;;;;4191563;28;20543;-56
2023/04/22 08:25:36;;;;;;;3.28;1.55;;;20.90;68.50;;;;;;4191663;28;20210;-56
2023/04/22 08:27:58;;;;;;;2.10;1.55;;;20.90;68.40;;;;;;4176286;28;20219;-56
2023/04/22 08:30:21;;;;;;;2.53;1.55;;;20.90;68.30;;;;;;4192658;28;20047;-56
2023/04/22 08:32:43;;;;;;;2.03;1.77;;;20.90;68.10;;;;;;4188454;28;20032;-56
2023/04/22 08:35:06;;;;;;;5.30;1.77;;;20.90;68.10;;;;;;4192290;28;20040;-56
2023/04/22 08:37:29;;;;;;;3.08;1.48;;;20.90;68.10;;;;;;4191834;28;20041;-55
2023/04/22 08:39:52;;;;;;;4.50;1.60;;;20.90;67.80;;;;;;4184612;28;20040;-57
2023/04/22 08:42:16;;;;;;;2.22;1.50;;;20.90;67.80;;;;;;4185719;28;20033;-57
2023/04/22 08:44:39;;;;;;;3.80;1.92;;;20.90;67.80;;;;;;4183169;28;20045;-58
2023/04/22 08:47:02;;;;;;;4.50;1.90;;;20.90;68.10;;;;;;4192068;28;20036;-57
2023/04/22 08:49:25;;;;;;;4.05;1.75;;;20.90;68.60;;;;;;4190599;28;20061;-57
2023/04/22 08:51:51;;;;;;;6.73;2.17;;;20.90;68.70;;;;;;4182585;28;20525;-59
2023/04/22 08:54:15;;;;;;;4.78;1.95;;;21.00;68.90;;;;;;4185364;28;20123;-58
2023/04/22 08:56:42;;;;;;;4.35;1.77;;;21.00;69.00;;;;;;4183684;28;20028;-58
2023/04/22 08:59:05;;;;;;;6.75;2.20;;;21.00;69.10;;;;;;4189310;28;20328;-55
2023/04/22 09:01:30;;;;;;;4.68;2.20;;;21.00;69.00;;;;;;4187755;28;20097;-59
2023/04/22 09:03:56;;;;;;;5.32;1.85;;;21.10;69.10;;;;;;4191377;28;20284;-59
2023/04/22 09:06:20;;;;;;;4.43;1.90;;;21.10;69.40;;;;;;4189667;28;20078;-60
2023/04/22 09:08:43;;;;;;;5.68;2.05;;;21.10;69.50;;;;;;4187329;28;20040;-59
2023/04/22 09:11:05;;;;;;;6.32;2.00;;;21.20;69.50;;;;;;4190567;28;20073;-54
2023/04/22 09:13:28;;;;;;;6.32;1.98;;;21.20;69.60;;;;;;4192585;28;20404;-52
2023/04/22 09:15:50;;;;;;;4.55;1.85;;;21.20;69.40;;;;;;4193207;28;20044;-54
2023/04/22 09:18:16;;;;;;;5.22;1.90;;;21.20;69.40;;;;;;4191372;28;20086;-52
2023/04/22 09:20:42;;;;;;;5.05;2.28;;;21.10;70.00;;;;;;4182867;28;20122;-56
2023/04/22 09:23:05;;;;;;;3.58;1.77;;;21.10;69.20;;;;;;4185918;28;20037;-53
2023/04/22 09:25:28;;;;;;;4.43;2.17;;;21.10;69.20;;;;;;4183904;28;20051;-54
2023/04/22 09:27:52;;;;;;;2.22;1.50;;;21.10;69.10;;;;;;4177039;28;20519;-54
2023/04/22 09:30:17;;;;;;;3.35;1.90;;;21.10;69.20;;;;;;4175302;28;20056;-57
2023/04/22 09:32:39;;;;;;;6.70;2.40;;;21.10;68.80;;;;;;4186499;28;20036;-52
2023/04/22 09:35:02;;;;;;;8.05;2.45;;;21.10;69.70;;;;;;4189480;28;20032;-54
2023/04/22 09:37:25;;;;;;;6.13;1.80;;;21.10;69.80;;;;;;4183763;28;20029;-53
2023/04/22 09:39:49;;;;;;;4.13;1.83;;;21.10;69.80;;;;;;4190796;28;20062;-51
2023/04/22 09:42:11;;;;;;;6.57;2.25;;;21.20;69.90;;;;;;4188082;28;20043;-55
2023/04/22 09:44:34;;;;;;;4.57;2.10;;;21.20;69.90;;;;;;4186244;28;20069;-55
2023/04/22 09:46:56;;;;;;;4.90;1.90;;;21.20;70.00;;;;;;4186961;28;20506;-58
2023/04/22 09:49:21;;;;;;;6.85;2.25;;;21.30;70.00;;;;;;4206426;28;20055;-57
2023/04/22 09:51:43;;;;;;;4.43;1.90;;;21.30;70.00;;;;;;4205481;28;20036;-57
2023/04/22 09:54:10;;;;;;;4.60;1.92;;;21.30;69.90;;;;;;4190825;28;20094;-58
2023/04/22 09:56:52;;;;;;;3.88;1.90;;;21.30;69.80;;;;;;4201063;28;20403;-59
2023/04/22 09:59:20;;;;;;;7.47;2.22;;;21.40;69.80;;;;;;4208826;28;20043;-58
2023/04/22 10:01:43;;;;;;;3.42;1.80;;;21.40;69.80;;;;;;4208622;28;20143;-59
2023/04/22 10:04:13;;;;;;;30.95;3.90;;;21.40;69.80;;;;;;4207061;28;20040;-58
2023/04/22 10:06:36;;;;;;;15.45;2.45;;;21.40;70.00;;;;;;4195815;28;20478;-58
2023/04/22 10:09:00;;;;;;;13.32;3.55;;;21.40;70.10;;;;;;4187295;28;20049;-57
2023/04/22 10:11:22;;;;;;;12.07;3.38;;;21.40;70.00;;;;;;4191771;28;20032;-58
2023/04/22 10:13:45;;;;;;;13.68;3.05;;;21.40;70.10;;;;;;4202644;28;20047;-58
2023/04/22 10:16:08;;;;;;;9.40;2.35;;;21.40;70.20;;;;;;4204571;28;20036;-57
2023/04/22 10:18:31;;;;;;;9.55;2.25;;;21.50;70.20;;;;;;4193238;28;20036;-58
2023/04/22 10:20:55;;;;;;;13.05;2.67;;;21.50;70.20;;;;;;4188211;28;20064;-59
2023/04/22 10:23:23;;;;;;;9.45;2.75;;;21.50;70.20;;;;;;4189940;28;20032;-57
2023/04/22 10:25:53;;;;;;;10.13;2.88;;;21.50;70.20;;;;;;4200805;28;20046;-58
2023/04/22 10:28:17;;;;;;;5.80;2.45;;;21.50;70.30;;;;;;4201548;28;20044;-58
2023/04/22 10:30:39;;;;;;;10.00;3.28;;;21.50;70.30;;;;;;4191845;28;20056;-48
2023/04/22 10:33:20;;;;;;;6.28;2.60;;;21.50;70.30;;;;;;4195033;28;20044;-45
2023/04/22 10:36:09;;;;;;;6.60;2.20;;;21.50;70.20;;;;;;4204447;28;20047;-47
2023/04/22 10:38:36;;;;;;;11.45;3.08;;;21.50;69.90;;;;;;4196974;28;20032;-47
2023/04/22 10:40:59;;;;;;;6.18;2.35;;;21.50;69.40;;;;;;4206501;28;20657;-50
2023/04/22 10:43:47;;;;;;;8.53;2.60;;;21.50;69.80;;;;;;4202727;28;20036;-62
2023/04/22 10:46:35;;;;;;;12.90;3.53;;;21.40;70.60;;;;;;4204680;28;20277;-61
2023/04/22 10:48:59;;;;;;;26.65;3.90;;;21.50;71.10;;;;;;4207822;28;20058;-59
2023/04/22 10:51:43;;;;;;;8.48;2.80;;;21.50;71.20;;;;;;4207042;28;20032;-59
2023/04/22 10:54:06;;;;;;;9.48;2.90;;;21.50;71.10;;;;;;4199323;28;20151;-59
2023/04/22 10:56:28;;;;;;;10.82;2.85;;;21.50;71.10;;;;;;4204406;28;20039;-60
2023/04/22 10:58:51;;;;;;;10.10;3.45;;;21.50;71.10;;;;;;4200551;28;20032;-60
2023/04/22 11:01:16;;;;;;;10.68;2.63;;;21.50;71.10;;;;;;4193457;28;20040;-59
2023/04/22 11:03:39;;;;;;;10.25;2.65;;;21.50;71.10;;;;;;4201221;28;20031;-62
2023/04/22 11:06:20;;;;;;;7.07;3.08;;;21.60;71.10;;;;;;4190386;28;20772;-60
2023/04/22 11:09:06;;;;;;;8.65;3.30;;;21.60;71.30;;;;;;4197135;28;20119;-60
2023/04/22 11:11:28;;;;;;;9.82;3.20;;;21.60;71.30;;;;;;4196644;28;20039;-52
2023/04/22 11:13:52;;;;;;;5.65;3.13;;;21.60;71.30;;;;;;4190055;28;20036;-61
2023/04/22 11:16:14;;;;;;;8.15;3.40;;;21.60;71.50;;;;;;4198255;28;20062;-61
2023/04/22 11:18:37;;;;;;;6.43;2.95;;;21.60;71.50;;;;;;4180241;28;20751;-61
2023/04/22 11:21:08;;;;;;;6.37;2.73;;;21.60;71.70;;;;;;4194335;28;20420;-61
2023/04/22 11:23:30;;;;;;;6.78;3.08;;;21.50;71.60;;;;;;4200553;28;20127;-60
2023/04/22 11:25:58;;;;;;;5.68;3.13;;;21.50;71.80;;;;;;4203026;28;20379;-59
2023/04/22 11:28:21;;;;;;;5.43;3.30;;;21.50;71.90;;;;;;4200741;28;20078;-59
2023/04/22 11:30:44;;;;;;;12.00;3.53;;;21.50;71.90;;;;;;4194706;28;20040;-61
2023/04/22 11:33:06;;;;;;;6.68;3.10;;;21.50;72.00;;;;;;4192985;28;20425;-60
2023/04/22 11:35:35;;;;;;;5.80;3.20;;;21.60;72.10;;;;;;4199830;28;20043;-59
2023/04/22 11:38:02;;;;;;;7.03;3.85;;;21.60;71.90;;;;;;4183169;28;20032;-60
2023/04/22 11:40:34;;;;;;;6.63;3.30;;;21.60;71.80;;;;;;4188447;28;20419;-58
2023/04/22 11:42:58;;;;;;;6.75;3.67;;;21.60;71.80;;;;;;4195685;28;20484;-58
2023/04/22 11:45:20;;;;;;;10.48;3.35;;;21.60;71.80;;;;;;4199829;28;20071;-55
2023/04/22 11:47:49;;;;;;;5.53;3.17;;;21.60;72.50;;;;;;4184344;28;20035;-60
2023/04/22 11:50:13;;;;;;;8.98;3.85;;;21.60;71.90;;;;;;4173819;28;20205;-59
2023/04/22 11:53:03;;;;;;;7.38;3.17;;;21.60;71.90;;;;;;4173955;28;20077;-60
2023/04/22 11:55:30;;;;;;;9.95;3.88;;;21.60;71.80;;;;;;4171173;28;20028;-51
2023/04/22 11:58:06;;;;;;;8.55;3.17;;;21.60;72.00;;;;;;4180091;28;20112;-55
2023/04/22 12:00:37;;;;;;;15.02;3.70;;;21.60;72.10;;;;;;4177756;28;20459;-56
2023/04/22 12:03:29;;;;;;;8.68;3.78;;;21.60;72.20;;;;;;4174369;28;20077;-54
2023/04/22 12:05:56;;;;;;;8.52;3.95;;;21.70;72.30;;;;;;4177715;28;20492;-60
2023/04/22 12:08:20;;;;;;;13.38;3.80;;;21.70;72.30;;;;;;4172234;28;20037;-59
2023/04/22 12:10:55;;;;;;;7.53;3.90;;;21.70;72.10;;;;;;4180006;28;20056;-59
2023/04/22 12:13:23;;;;;;;11.73;3.92;;;21.70;72.00;;;;;;4180384;28;20029;-59
2023/04/22 12:15:45;;;;;;;6.65;3.60;;;21.70;71.90;;;;;;4171729;28;20049;-59
2023/04/22 12:18:08;;;;;;;8.80;3.70;;;21.70;72.00;;;;;;4178745;28;20033;-58
2023/04/22 12:20:38;;;;;;;11.77;3.85;;;21.70;71.80;;;;;;4182286;28;20041;-58
2023/04/22 12:23:01;;;;;;;5.65;3.40;;;21.70;72.00;;;;;;4175697;28;20519;-59
2023/04/22 12:25:23;;;;;;;11.45;4.07;;;21.70;72.10;;;;;;4175232;28;20099;-59
2023/04/22 12:27:46;;;;;;;11.68;3.92;;;21.80;72.10;;;;;;4180027;28;20493;-59